Aviation Digital Data Service (ADDS)

Output produced by TAFs form (1610 UTC 24 November 2014)
found at http://www.aviationweather.gov/adds/tafs/
 
KMRB 241122Z 2412/2512 19010KT P6SM BKN100 
     FM241600 19016G24KT P6SM BKN060 
     FM241700 20017G26KT P6SM SCT050 
     FM242000 20017G27KT P6SM SCT250 
     FM242300 20011KT P6SM SCT150 
     FM250300 24007KT P6SM SCT150